Loyalton, California
Current Conditions -  °F | °C
As of 3:55 AM on Thursday 23 Oct 2014 (Local Time) from KRTS Reporting Station
Clear Clear  
Wind Chill: 54°   Ceiling: Unl
Heat Index: 54°   Visibility: 10mi
Dew Point: 25°   Wind: 3mph
Humidity: 33%   Direction: 360°N
Pressure: 30.09"   Gusts: NA
Location:  39.68°N, 120.24°W
Report Text: KRTS 231055Z AUTO 36003KT 10SM CLR 12/M04 A3009 RMK AO2
Loading
Personal Weather Stations






























Interactive Weather Map
Tropical Storm Tracking
New forecast layout! Learn more

10-Day Weather Forecast

Advertisements
Track Severe Weather on mobile